sensor_id;sensor_type;location;lat;lon;timestamp;pressure;altitude;pressure_sealevel;temperature;humidity
44872;BME280;30602;51.060;17.226;2023-02-10T00:01:21;103254.53;;;-1.38;71.92
44872;BME280;30602;51.060;17.226;2023-02-10T00:04:55;103264.13;;;-1.34;71.60
44872;BME280;30602;51.060;17.226;2023-02-10T00:08:03;103259.42;;;-1.31;71.46
44872;BME280;30602;51.060;17.226;2023-02-10T00:11:15;103261.27;;;-1.28;71.06
44872;BME280;30602;51.060;17.226;2023-02-10T00:14:27;103265.45;;;-1.35;70.90
44872;BME280;30602;51.060;17.226;2023-02-10T00:17:41;103268.73;;;-1.40;70.72
44872;BME280;30602;51.060;17.226;2023-02-10T00:20:48;103268.73;;;-1.55;71.39
44872;BME280;30602;51.060;17.226;2023-02-10T00:23:58;103257.96;;;-1.67;71.61
44872;BME280;30602;51.060;17.226;2023-02-10T00:27:12;103266.55;;;-1.60;71.49
44872;BME280;30602;51.060;17.226;2023-02-10T00:30:22;103269.96;;;-1.56;71.97
44872;BME280;30602;51.060;17.226;2023-02-10T00:33:30;103273.09;;;-1.55;71.82
44872;BME280;30602;51.060;17.226;2023-02-10T00:37:12;103275.04;;;-1.60;71.91
44872;BME280;30602;51.060;17.226;2023-02-10T00:40:20;103281.07;;;-1.70;71.82
44872;BME280;30602;51.060;17.226;2023-02-10T00:43:33;103272.98;;;-1.86;72.38
44872;BME280;30602;51.060;17.226;2023-02-10T00:47:23;103284.81;;;-1.80;72.44
44872;BME280;30602;51.060;17.226;2023-02-10T00:50:57;103286.34;;;-1.72;72.28
44872;BME280;30602;51.060;17.226;2023-02-10T00:54:13;103289.00;;;-1.87;72.65
44872;BME280;30602;51.060;17.226;2023-02-10T00:57:47;103286.52;;;-1.87;72.59
44872;BME280;30602;51.060;17.226;2023-02-10T01:01:11;103287.16;;;-1.97;73.19
44872;BME280;30602;51.060;17.226;2023-02-10T01:04:19;103285.09;;;-2.07;73.52
44872;BME280;30602;51.060;17.226;2023-02-10T01:07:47;103282.59;;;-2.18;74.33
44872;BME280;30602;51.060;17.226;2023-02-10T01:11:08;103276.32;;;-2.21;74.65
44872;BME280;30602;51.060;17.226;2023-02-10T01:14:45;103282.07;;;-2.14;74.46
44872;BME280;30602;51.060;17.226;2023-02-10T01:18:08;103273.76;;;-2.18;73.83
44872;BME280;30602;51.060;17.226;2023-02-10T01:21:46;103270.49;;;-2.25;73.75
44872;BME280;30602;51.060;17.226;2023-02-10T01:25:12;103267.92;;;-2.42;74.40
44872;BME280;30602;51.060;17.226;2023-02-10T01:28:43;103273.38;;;-2.51;74.48
44872;BME280;30602;51.060;17.226;2023-02-10T01:32:41;103268.93;;;-2.58;75.02
44872;BME280;30602;51.060;17.226;2023-02-10T01:36:24;103263.85;;;-2.63;75.22
44872;BME280;30602;51.060;17.226;2023-02-10T01:39:36;103269.55;;;-2.65;75.10
44872;BME280;30602;51.060;17.226;2023-02-10T01:43:12;103266.70;;;-2.74;75.26
44872;BME280;30602;51.060;17.226;2023-02-10T01:46:39;103260.56;;;-2.81;75.67
44872;BME280;30602;51.060;17.226;2023-02-10T01:49:50;103259.14;;;-2.94;77.06
44872;BME280;30602;51.060;17.226;2023-02-10T02:01:05;103243.71;;;-3.06;77.52
44872;BME280;30602;51.060;17.226;2023-02-10T02:08:06;103256.43;;;-3.14;78.05
44872;BME280;30602;51.060;17.226;2023-02-10T02:11:49;103256.64;;;-3.16;78.03
44872;BME280;30602;51.060;17.226;2023-02-10T02:18:50;103275.07;;;-3.22;78.13
44872;BME280;30602;51.060;17.226;2023-02-10T02:23:02;103279.87;;;-3.24;77.79
44872;BME280;30602;51.060;17.226;2023-02-10T02:37:33;103263.11;;;-3.64;79.22
44872;BME280;30602;51.060;17.226;2023-02-10T02:41:08;103264.60;;;-3.42;78.70
44872;BME280;30602;51.060;17.226;2023-02-10T02:44:18;103272.87;;;-3.37;78.37
44872;BME280;30602;51.060;17.226;2023-02-10T02:48:00;103277.37;;;-3.41;78.47
44872;BME280;30602;51.060;17.226;2023-02-10T02:55:28;103272.42;;;-3.50;78.03
44872;BME280;30602;51.060;17.226;2023-02-10T03:02:07;103264.72;;;-3.62;77.92
44872;BME280;30602;51.060;17.226;2023-02-10T03:05:51;103261.67;;;-3.70;78.09
44872;BME280;30602;51.060;17.226;2023-02-10T03:08:57;103262.88;;;-3.77;78.54
44872;BME280;30602;51.060;17.226;2023-02-10T03:13:01;103264.24;;;-3.91;79.55
44872;BME280;30602;51.060;17.226;2023-02-10T03:16:13;103267.27;;;-3.96;79.50
44872;BME280;30602;51.060;17.226;2023-02-10T03:19:47;103265.54;;;-4.03;79.91
44872;BME280;30602;51.060;17.226;2023-02-10T03:22:57;103249.68;;;-4.15;80.23
44872;BME280;30602;51.060;17.226;2023-02-10T03:26:37;103273.12;;;-4.07;80.77
44872;BME280;30602;51.060;17.226;2023-02-10T03:30:16;103277.61;;;-4.01;80.87
44872;BME280;30602;51.060;17.226;2023-02-10T03:33:52;103289.55;;;-3.96;80.58
44872;BME280;30602;51.060;17.226;2023-02-10T03:37:04;103286.12;;;-4.00;80.43
44872;BME280;30602;51.060;17.226;2023-02-10T03:40:51;103297.63;;;-4.01;80.80
44872;BME280;30602;51.060;17.226;2023-02-10T03:44:03;103290.95;;;-3.96;80.39
44872;BME280;30602;51.060;17.226;2023-02-10T03:47:17;103295.58;;;-3.88;81.05
44872;BME280;30602;51.060;17.226;2023-02-10T03:50:29;103293.96;;;-3.76;80.61
44872;BME280;30602;51.060;17.226;2023-02-10T03:53:42;103288.74;;;-3.81;80.75
44872;BME280;30602;51.060;17.226;2023-02-10T03:57:11;103289.80;;;-3.65;80.49
44872;BME280;30602;51.060;17.226;2023-02-10T04:01:19;103300.34;;;-3.57;80.60
44872;BME280;30602;51.060;17.226;2023-02-10T04:04:38;103305.93;;;-3.31;79.80
44872;BME280;30602;51.060;17.226;2023-02-10T04:08:21;103303.15;;;-3.28;79.32
44872;BME280;30602;51.060;17.226;2023-02-10T04:11:33;103295.27;;;-3.31;79.05
44872;BME280;30602;51.060;17.226;2023-02-10T04:15:06;103294.05;;;-3.23;78.55
44872;BME280;30602;51.060;17.226;2023-02-10T04:18:17;103299.70;;;-3.19;78.16
44872;BME280;30602;51.060;17.226;2023-02-10T04:21:43;103305.71;;;-3.22;77.67
44872;BME280;30602;51.060;17.226;2023-02-10T04:25:05;103311.03;;;-3.13;77.41
44872;BME280;30602;51.060;17.226;2023-02-10T04:28:20;103313.12;;;-3.01;76.89
44872;BME280;30602;51.060;17.226;2023-02-10T04:32:19;103312.28;;;-3.13;76.63
44872;BME280;30602;51.060;17.226;2023-02-10T04:35:29;103315.58;;;-3.07;76.67
44872;BME280;30602;51.060;17.226;2023-02-10T04:39:16;103306.70;;;-3.19;76.82
44872;BME280;30602;51.060;17.226;2023-02-10T04:42:22;103306.96;;;-3.13;76.84
44872;BME280;30602;51.060;17.226;2023-02-10T04:45:45;103310.30;;;-3.16;76.49
44872;BME280;30602;51.060;17.226;2023-02-10T04:48:57;103307.49;;;-3.18;76.57
44872;BME280;30602;51.060;17.226;2023-02-10T04:52:11;103311.67;;;-3.20;77.03
44872;BME280;30602;51.060;17.226;2023-02-10T04:55:24;103311.31;;;-3.28;77.72
44872;BME280;30602;51.060;17.226;2023-02-10T04:59:16;103318.96;;;-3.35;77.73
44872;BME280;30602;51.060;17.226;2023-02-10T05:02:28;103314.33;;;-3.35;77.55
44872;BME280;30602;51.060;17.226;2023-02-10T05:05:50;103319.68;;;-3.24;77.17
44872;BME280;30602;51.060;17.226;2023-02-10T05:09:01;103307.02;;;-3.21;76.97
44872;BME280;30602;51.060;17.226;2023-02-10T05:12:12;103311.95;;;-3.19;76.69
44872;BME280;30602;51.060;17.226;2023-02-10T05:15:26;103309.84;;;-3.20;76.53
44872;BME280;30602;51.060;17.226;2023-02-10T05:19:00;103314.43;;;-3.28;76.92
44872;BME280;30602;51.060;17.226;2023-02-10T05:22:10;103316.45;;;-3.31;76.85
44872;BME280;30602;51.060;17.226;2023-02-10T05:25:46;103311.07;;;-3.30;77.03
44872;BME280;30602;51.060;17.226;2023-02-10T05:29:00;103314.00;;;-3.18;77.13
44872;BME280;30602;51.060;17.226;2023-02-10T05:32:49;103325.43;;;-3.16;77.09
44872;BME280;30602;51.060;17.226;2023-02-10T05:35:58;103325.63;;;-3.12;76.79
44872;BME280;30602;51.060;17.226;2023-02-10T05:39:29;103325.17;;;-3.08;76.97
44872;BME280;30602;51.060;17.226;2023-02-10T05:42:40;103322.45;;;-3.00;76.86
44872;BME280;30602;51.060;17.226;2023-02-10T05:45:53;103317.67;;;-2.99;76.91
44872;BME280;30602;51.060;17.226;2023-02-10T05:49:33;103326.60;;;-2.90;77.11
44872;BME280;30602;51.060;17.226;2023-02-10T05:53:02;103332.97;;;-2.69;76.37
44872;BME280;30602;51.060;17.226;2023-02-10T05:56:17;103347.75;;;-2.55;75.59
44872;BME280;30602;51.060;17.226;2023-02-10T05:59:33;103351.63;;;-2.48;75.68
44872;BME280;30602;51.060;17.226;2023-02-10T06:02:41;103344.99;;;-2.41;75.24
44872;BME280;30602;51.060;17.226;2023-02-10T06:05:51;103338.30;;;-2.44;75.84
44872;BME280;30602;51.060;17.226;2023-02-10T06:09:07;103347.94;;;-2.27;75.36
44872;BME280;30602;51.060;17.226;2023-02-10T06:12:38;103356.53;;;-2.20;75.42
44872;BME280;30602;51.060;17.226;2023-02-10T06:16:18;103356.57;;;-2.09;75.21
44872;BME280;30602;51.060;17.226;2023-02-10T06:20:01;103363.35;;;-2.07;74.93
44872;BME280;30602;51.060;17.226;2023-02-10T06:23:58;103362.41;;;-2.01;74.05
44872;BME280;30602;51.060;17.226;2023-02-10T06:27:12;103347.11;;;-2.06;73.87
44872;BME280;30602;51.060;17.226;2023-02-10T06:30:22;103369.85;;;-1.83;73.39
44872;BME280;30602;51.060;17.226;2023-02-10T06:33:31;103376.78;;;-1.70;72.63
44872;BME280;30602;51.060;17.226;2023-02-10T06:36:51;103381.40;;;-1.59;72.17
44872;BME280;30602;51.060;17.226;2023-02-10T06:40:24;103387.72;;;-1.54;71.78
44872;BME280;30602;51.060;17.226;2023-02-10T06:43:34;103387.41;;;-1.54;71.91
44872;BME280;30602;51.060;17.226;2023-02-10T06:47:14;103379.84;;;-1.60;72.17
44872;BME280;30602;51.060;17.226;2023-02-10T06:50:41;103386.73;;;-1.50;72.62
44872;BME280;30602;51.060;17.226;2023-02-10T06:53:54;103388.82;;;-1.37;72.61
44872;BME280;30602;51.060;17.226;2023-02-10T06:57:11;103386.40;;;-1.35;72.68
44872;BME280;30602;51.060;17.226;2023-02-10T07:00:30;103387.87;;;-1.32;72.51
44872;BME280;30602;51.060;17.226;2023-02-10T07:03:47;103388.43;;;-1.29;72.09
44872;BME280;30602;51.060;17.226;2023-02-10T07:07:10;103390.19;;;-1.31;72.61
44872;BME280;30602;51.060;17.226;2023-02-10T07:10:20;103391.50;;;-1.23;72.65
44872;BME280;30602;51.060;17.226;2023-02-10T07:13:37;103392.63;;;-1.29;72.46
44872;BME280;30602;51.060;17.226;2023-02-10T07:17:03;103393.52;;;-1.11;72.14
44872;BME280;30602;51.060;17.226;2023-02-10T07:20:13;103387.84;;;-1.01;71.71
44872;BME280;30602;51.060;17.226;2023-02-10T07:23:50;103390.45;;;-1.00;71.82
44872;BME280;30602;51.060;17.226;2023-02-10T07:27:31;103401.34;;;-1.03;72.19
44872;BME280;30602;51.060;17.226;2023-02-10T07:30:40;103402.00;;;-0.90;71.52
44872;BME280;30602;51.060;17.226;2023-02-10T07:33:53;103405.17;;;-0.81;71.13
44872;BME280;30602;51.060;17.226;2023-02-10T07:37:30;103390.89;;;-0.75;70.46
44872;BME280;30602;51.060;17.226;2023-02-10T07:41:07;103410.79;;;-0.53;70.28
44872;BME280;30602;51.060;17.226;2023-02-10T07:44:16;103415.66;;;-0.47;69.85
44872;BME280;30602;51.060;17.226;2023-02-10T07:48:08;103423.88;;;-0.50;69.15
44872;BME280;30602;51.060;17.226;2023-02-10T07:51:21;103421.18;;;-0.36;68.66
44872;BME280;30602;51.060;17.226;2023-02-10T07:54:38;103415.20;;;-0.33;68.60
44872;BME280;30602;51.060;17.226;2023-02-10T07:57:51;103403.13;;;-0.19;68.33
44872;BME280;30602;51.060;17.226;2023-02-10T08:01:06;103398.67;;;-0.07;67.82
44872;BME280;30602;51.060;17.226;2023-02-10T08:04:33;103403.42;;;0.07;68.04
44872;BME280;30602;51.060;17.226;2023-02-10T08:08:11;103395.03;;;0.08;67.82
44872;BME280;30602;51.060;17.226;2023-02-10T08:11:39;103398.62;;;0.16;67.80
44872;BME280;30602;51.060;17.226;2023-02-10T08:15:10;103400.73;;;0.25;67.86
44872;BME280;30602;51.060;17.226;2023-02-10T08:18:19;103395.08;;;0.37;67.98
44872;BME280;30602;51.060;17.226;2023-02-10T08:21:42;103395.27;;;0.28;68.15
44872;BME280;30602;51.060;17.226;2023-02-10T08:24:52;103394.14;;;0.54;68.08
44872;BME280;30602;51.060;17.226;2023-02-10T08:28:02;103403.34;;;0.61;67.73
44872;BME280;30602;51.060;17.226;2023-02-10T08:31:17;103399.59;;;0.69;67.83
44872;BME280;30602;51.060;17.226;2023-02-10T08:34:30;103398.22;;;0.68;68.13
44872;BME280;30602;51.060;17.226;2023-02-10T08:37:40;103397.01;;;0.73;68.14
44872;BME280;30602;51.060;17.226;2023-02-10T08:41:42;103405.23;;;0.77;68.23
44872;BME280;30602;51.060;17.226;2023-02-10T08:44:50;103414.71;;;0.89;68.25
44872;BME280;30602;51.060;17.226;2023-02-10T08:48:09;103419.51;;;0.96;68.56
44872;BME280;30602;51.060;17.226;2023-02-10T08:51:23;103416.47;;;0.88;69.35
44872;BME280;30602;51.060;17.226;2023-02-10T08:54:31;103417.54;;;0.77;70.13
44872;BME280;30602;51.060;17.226;2023-02-10T08:57:46;103419.96;;;0.84;70.66
44872;BME280;30602;51.060;17.226;2023-02-10T09:01:13;103423.42;;;1.00;71.10
44872;BME280;30602;51.060;17.226;2023-02-10T09:04:28;103416.23;;;1.10;71.31
44872;BME280;30602;51.060;17.226;2023-02-10T09:07:47;103410.52;;;1.22;71.58
44872;BME280;30602;51.060;17.226;2023-02-10T09:11:05;103407.77;;;1.01;72.57
44872;BME280;30602;51.060;17.226;2023-02-10T09:14:23;103415.65;;;1.20;72.66
44872;BME280;30602;51.060;17.226;2023-02-10T09:18:14;103419.16;;;1.17;72.97
44872;BME280;30602;51.060;17.226;2023-02-10T09:21:51;103433.55;;;1.31;73.06
44872;BME280;30602;51.060;17.226;2023-02-10T09:25:24;103424.05;;;1.40;73.08
44872;BME280;30602;51.060;17.226;2023-02-10T09:28:40;103429.21;;;1.47;73.43
44872;BME280;30602;51.060;17.226;2023-02-10T09:31:55;103428.88;;;1.48;73.56
44872;BME280;30602;51.060;17.226;2023-02-10T09:35:10;103418.15;;;1.54;73.47
44872;BME280;30602;51.060;17.226;2023-02-10T09:38:27;103423.66;;;1.50;74.09
44872;BME280;30602;51.060;17.226;2023-02-10T09:45:42;103440.88;;;1.72;74.06
44872;BME280;30602;51.060;17.226;2023-02-10T09:56:21;103438.80;;;2.04;74.50
44872;BME280;30602;51.060;17.226;2023-02-10T09:59:33;103440.67;;;1.88;75.53
44872;BME280;30602;51.060;17.226;2023-02-10T10:03:06;103439.82;;;2.04;75.71
44872;BME280;30602;51.060;17.226;2023-02-10T10:10:17;103450.46;;;2.27;75.80
44872;BME280;30602;51.060;17.226;2023-02-10T10:13:30;103451.08;;;2.34;75.85
44872;BME280;30602;51.060;17.226;2023-02-10T10:31:30;103432.57;;;2.69;75.36
44872;BME280;30602;51.060;17.226;2023-02-10T10:34:37;103443.32;;;2.78;74.89
44872;BME280;30602;51.060;17.226;2023-02-10T10:37:50;103434.61;;;2.85;74.53
44872;BME280;30602;51.060;17.226;2023-02-10T10:41:05;103427.21;;;2.76;75.07
44872;BME280;30602;51.060;17.226;2023-02-10T10:44:45;103424.05;;;2.65;75.73
44872;BME280;30602;51.060;17.226;2023-02-10T10:48:03;103430.03;;;2.65;75.58
44872;BME280;30602;51.060;17.226;2023-02-10T10:51:35;103433.38;;;2.73;75.72
44872;BME280;30602;51.060;17.226;2023-02-10T10:54:47;103414.87;;;2.82;75.24
44872;BME280;30602;51.060;17.226;2023-02-10T10:58:03;103410.98;;;3.02;74.92
44872;BME280;30602;51.060;17.226;2023-02-10T11:01:30;103407.92;;;3.05;74.61
44872;BME280;30602;51.060;17.226;2023-02-10T11:04:42;103405.54;;;3.09;74.44
44872;BME280;30602;51.060;17.226;2023-02-10T11:08:00;103398.20;;;3.16;74.04
44872;BME280;30602;51.060;17.226;2023-02-10T11:11:16;103402.80;;;3.11;73.90
44872;BME280;30602;51.060;17.226;2023-02-10T11:14:28;103399.61;;;3.16;73.92
44872;BME280;30602;51.060;17.226;2023-02-10T11:18:04;103394.68;;;3.30;73.47
44872;BME280;30602;51.060;17.226;2023-02-10T11:21:39;103391.62;;;3.36;72.16
44872;BME280;30602;51.060;17.226;2023-02-10T11:25:03;103386.01;;;3.33;71.97
44872;BME280;30602;51.060;17.226;2023-02-10T11:28:23;103390.72;;;3.28;72.23
44872;BME280;30602;51.060;17.226;2023-02-10T11:31:38;103391.54;;;3.18;72.31
44872;BME280;30602;51.060;17.226;2023-02-10T11:35:30;103389.94;;;3.26;72.61
44872;BME280;30602;51.060;17.226;2023-02-10T11:48:30;103380.47;;;3.19;71.56
44872;BME280;30602;51.060;17.226;2023-02-10T11:51:52;103387.65;;;3.19;71.85
44872;BME280;30602;51.060;17.226;2023-02-10T11:55:15;103391.03;;;3.27;72.29
44872;BME280;30602;51.060;17.226;2023-02-10T11:59:04;103387.83;;;3.31;72.11
44872;BME280;30602;51.060;17.226;2023-02-10T12:09:40;103387.55;;;3.59;71.60
44872;BME280;30602;51.060;17.226;2023-02-10T12:34:18;103402.67;;;3.58;71.47
44872;BME280;30602;51.060;17.226;2023-02-10T12:45:22;103398.66;;;3.54;71.72
44872;BME280;30602;51.060;17.226;2023-02-10T12:53:25;103393.91;;;3.69;71.22
44872;BME280;30602;51.060;17.226;2023-02-10T13:00:37;103389.38;;;3.76;71.34
44872;BME280;30602;51.060;17.226;2023-02-10T13:04:07;103387.34;;;3.55;71.80
44872;BME280;30602;51.060;17.226;2023-02-10T13:10:50;103386.70;;;3.58;72.43
44872;BME280;30602;51.060;17.226;2023-02-10T13:14:09;103386.78;;;3.57;72.47
44872;BME280;30602;51.060;17.226;2023-02-10T13:17:20;103388.21;;;3.62;72.58
44872;BME280;30602;51.060;17.226;2023-02-10T13:21:37;103397.63;;;3.74;72.24
44872;BME280;30602;51.060;17.226;2023-02-10T13:24:58;103398.12;;;3.59;72.87
44872;BME280;30602;51.060;17.226;2023-02-10T13:36:04;103407.24;;;3.48;74.53
44872;BME280;30602;51.060;17.226;2023-02-10T13:39:55;103393.77;;;3.55;74.35
44872;BME280;30602;51.060;17.226;2023-02-10T13:43:26;103399.70;;;3.62;74.13
44872;BME280;30602;51.060;17.226;2023-02-10T13:46:37;103396.11;;;3.67;73.94
44872;BME280;30602;51.060;17.226;2023-02-10T13:50:21;103399.27;;;3.72;73.93
44872;BME280;30602;51.060;17.226;2023-02-10T13:54:05;103369.36;;;3.55;74.06
44872;BME280;30602;51.060;17.226;2023-02-10T13:57:23;103398.88;;;3.71;73.97
44872;BME280;30602;51.060;17.226;2023-02-10T14:01:28;103406.46;;;3.69;74.11
44872;BME280;30602;51.060;17.226;2023-02-10T14:05:30;103413.60;;;3.78;73.65
44872;BME280;30602;51.060;17.226;2023-02-10T14:08:49;103411.62;;;3.81;73.59
44872;BME280;30602;51.060;17.226;2023-02-10T14:12:26;103417.38;;;3.76;73.30
44872;BME280;30602;51.060;17.226;2023-02-10T14:20:15;103418.68;;;3.66;73.43
44872;BME280;30602;51.060;17.226;2023-02-10T14:23:29;103426.35;;;3.52;73.57
44872;BME280;30602;51.060;17.226;2023-02-10T14:26:51;103402.55;;;3.39;73.87
44872;BME280;30602;51.060;17.226;2023-02-10T14:38:35;103420.16;;;3.55;73.51
44872;BME280;30602;51.060;17.226;2023-02-10T14:42:28;103415.20;;;3.62;73.29
44872;BME280;30602;51.060;17.226;2023-02-10T14:45:58;103419.05;;;3.66;73.46
44872;BME280;30602;51.060;17.226;2023-02-10T14:49:20;103424.57;;;3.64;73.34
44872;BME280;30602;51.060;17.226;2023-02-10T14:52:35;103425.94;;;3.52;73.23
44872;BME280;30602;51.060;17.226;2023-02-10T14:55:58;103425.37;;;3.53;73.35
44872;BME280;30602;51.060;17.226;2023-02-10T14:59:31;103424.00;;;3.54;73.59
44872;BME280;30602;51.060;17.226;2023-02-10T15:03:03;103428.37;;;3.45;73.41
44872;BME280;30602;51.060;17.226;2023-02-10T15:06:20;103432.47;;;3.44;73.71
44872;BME280;30602;51.060;17.226;2023-02-10T15:09:36;103429.15;;;3.40;73.98
44872;BME280;30602;51.060;17.226;2023-02-10T15:13:11;103429.09;;;3.43;73.62
44872;BME280;30602;51.060;17.226;2023-02-10T15:16:26;103429.58;;;3.33;73.97
44872;BME280;30602;51.060;17.226;2023-02-10T15:27:23;103429.62;;;3.26;73.89
44872;BME280;30602;51.060;17.226;2023-02-10T15:38:00;103431.48;;;3.06;74.07
44872;BME280;30602;51.060;17.226;2023-02-10T15:41:41;103428.61;;;3.13;74.28
44872;BME280;30602;51.060;17.226;2023-02-10T15:48:28;103433.30;;;3.15;74.04
44872;BME280;30602;51.060;17.226;2023-02-10T15:51:48;103427.20;;;3.14;74.06
44872;BME280;30602;51.060;17.226;2023-02-10T15:55:03;103431.03;;;3.09;74.34
44872;BME280;30602;51.060;17.226;2023-02-10T15:58:21;103417.42;;;2.99;74.38
44872;BME280;30602;51.060;17.226;2023-02-10T16:02:06;103429.67;;;3.02;74.75
44872;BME280;30602;51.060;17.226;2023-02-10T16:06:42;103419.23;;;2.91;74.98
44872;BME280;30602;51.060;17.226;2023-02-10T16:09:56;103434.13;;;2.89;75.60
44872;BME280;30602;51.060;17.226;2023-02-10T16:13:06;103442.34;;;2.86;75.93
44872;BME280;30602;51.060;17.226;2023-02-10T16:16:21;103443.52;;;2.85;75.96
44872;BME280;30602;51.060;17.226;2023-02-10T16:20:21;103449.72;;;2.95;75.62
44872;BME280;30602;51.060;17.226;2023-02-10T16:23:38;103445.27;;;2.97;75.72
44872;BME280;30602;51.060;17.226;2023-02-10T16:27:00;103457.01;;;2.87;75.56
44872;BME280;30602;51.060;17.226;2023-02-10T16:30:25;103459.62;;;2.86;75.62
44872;BME280;30602;51.060;17.226;2023-02-10T16:33:43;103463.02;;;2.84;75.27
44872;BME280;30602;51.060;17.226;2023-02-10T16:37:01;103462.52;;;2.83;75.28
44872;BME280;30602;51.060;17.226;2023-02-10T16:40:44;103455.64;;;2.66;74.85
44872;BME280;30602;51.060;17.226;2023-02-10T16:44:40;103460.29;;;2.71;74.32
44872;BME280;30602;51.060;17.226;2023-02-10T16:48:54;103465.45;;;2.68;74.62
44872;BME280;30602;51.060;17.226;2023-02-10T16:52:09;103449.34;;;2.60;74.42
44872;BME280;30602;51.060;17.226;2023-02-10T16:55:55;103464.02;;;2.61;74.59
44872;BME280;30602;51.060;17.226;2023-02-10T16:59:40;103460.59;;;2.75;74.32
44872;BME280;30602;51.060;17.226;2023-02-10T17:02:57;103458.66;;;2.73;74.18
44872;BME280;30602;51.060;17.226;2023-02-10T17:10:22;103465.66;;;2.69;74.31
44872;BME280;30602;51.060;17.226;2023-02-10T17:14:12;103461.40;;;2.65;74.29
44872;BME280;30602;51.060;17.226;2023-02-10T17:17:37;103462.70;;;2.64;74.43
44872;BME280;30602;51.060;17.226;2023-02-10T17:20:59;103462.04;;;2.58;74.57
44872;BME280;30602;51.060;17.226;2023-02-10T17:24:12;103466.84;;;2.50;74.71
44872;BME280;30602;51.060;17.226;2023-02-10T17:28:31;103461.48;;;2.48;74.76
44872;BME280;30602;51.060;17.226;2023-02-10T17:32:20;103470.16;;;2.55;74.93
44872;BME280;30602;51.060;17.226;2023-02-10T17:35:50;103473.40;;;2.51;75.03
44872;BME280;30602;51.060;17.226;2023-02-10T17:39:27;103455.82;;;2.37;75.24
44872;BME280;30602;51.060;17.226;2023-02-10T17:43:02;103473.87;;;2.45;75.62
44872;BME280;30602;51.060;17.226;2023-02-10T17:46:57;103476.52;;;2.55;75.33
44872;BME280;30602;51.060;17.226;2023-02-10T17:50:49;103472.78;;;2.51;75.46
44872;BME280;30602;51.060;17.226;2023-02-10T17:54:54;103485.09;;;2.45;75.78
44872;BME280;30602;51.060;17.226;2023-02-10T17:58:55;103486.48;;;2.41;76.14
44872;BME280;30602;51.060;17.226;2023-02-10T18:02:47;103489.61;;;2.44;75.91
44872;BME280;30602;51.060;17.226;2023-02-10T18:06:03;103489.91;;;2.39;75.92
44872;BME280;30602;51.060;17.226;2023-02-10T18:09:45;103480.80;;;2.37;76.31
44872;BME280;30602;51.060;17.226;2023-02-10T18:13:17;103479.58;;;2.38;76.10
44872;BME280;30602;51.060;17.226;2023-02-10T18:16:28;103483.68;;;2.39;76.15
44872;BME280;30602;51.060;17.226;2023-02-10T18:19:39;103485.66;;;2.34;76.16
44872;BME280;30602;51.060;17.226;2023-02-10T18:23:50;103485.98;;;2.32;76.25
44872;BME280;30602;51.060;17.226;2023-02-10T18:27:05;103490.78;;;2.30;76.16
44872;BME280;30602;51.060;17.226;2023-02-10T18:30:50;103489.24;;;2.34;76.10
44872;BME280;30602;51.060;17.226;2023-02-10T18:34:37;103491.55;;;2.40;75.35
44872;BME280;30602;51.060;17.226;2023-02-10T18:38:23;103492.62;;;2.40;74.97
44872;BME280;30602;51.060;17.226;2023-02-10T18:41:35;103489.61;;;2.34;74.98
44872;BME280;30602;51.060;17.226;2023-02-10T18:45:24;103496.35;;;2.31;74.92
44872;BME280;30602;51.060;17.226;2023-02-10T18:48:45;103495.27;;;2.27;74.81
44872;BME280;30602;51.060;17.226;2023-02-10T18:52:34;103496.50;;;2.22;75.23
44872;BME280;30602;51.060;17.226;2023-02-10T18:55:50;103489.73;;;2.16;75.64
44872;BME280;30602;51.060;17.226;2023-02-10T18:59:03;103492.92;;;2.09;75.97
44872;BME280;30602;51.060;17.226;2023-02-10T19:02:13;103486.48;;;2.00;75.56
44872;BME280;30602;51.060;17.226;2023-02-10T19:06:04;103495.59;;;2.04;75.52
44872;BME280;30602;51.060;17.226;2023-02-10T19:09:15;103489.60;;;1.98;75.71
44872;BME280;30602;51.060;17.226;2023-02-10T19:12:54;103492.79;;;1.90;76.01
44872;BME280;30602;51.060;17.226;2023-02-10T19:16:15;103483.35;;;1.81;75.39
44872;BME280;30602;51.060;17.226;2023-02-10T19:19:36;103484.00;;;1.84;75.55
44872;BME280;30602;51.060;17.226;2023-02-10T19:23:29;103482.69;;;1.86;75.64
44872;BME280;30602;51.060;17.226;2023-02-10T19:26:40;103473.65;;;1.81;75.46
44872;BME280;30602;51.060;17.226;2023-02-10T19:29:55;103467.01;;;1.77;75.77
44872;BME280;30602;51.060;17.226;2023-02-10T19:33:45;103460.40;;;1.74;75.62
44872;BME280;30602;51.060;17.226;2023-02-10T19:37:42;103445.85;;;1.53;76.14
44872;BME280;30602;51.060;17.226;2023-02-10T19:41:28;103455.09;;;1.55;76.11
44872;BME280;30602;51.060;17.226;2023-02-10T19:44:44;103451.52;;;1.51;76.25
44872;BME280;30602;51.060;17.226;2023-02-10T19:48:05;103414.10;;;1.35;76.03
44872;BME280;30602;51.060;17.226;2023-02-10T19:52:15;103441.16;;;1.49;76.51
44872;BME280;30602;51.060;17.226;2023-02-10T19:55:30;103440.64;;;1.41;76.44
44872;BME280;30602;51.060;17.226;2023-02-10T19:58:44;103435.81;;;1.36;76.54
44872;BME280;30602;51.060;17.226;2023-02-10T20:01:58;103423.80;;;1.26;77.01
44872;BME280;30602;51.060;17.226;2023-02-10T20:05:30;103424.66;;;1.23;77.01
44872;BME280;30602;51.060;17.226;2023-02-10T20:09:18;103431.27;;;1.21;77.06
44872;BME280;30602;51.060;17.226;2023-02-10T20:13:03;103431.46;;;1.22;77.28
44872;BME280;30602;51.060;17.226;2023-02-10T20:17:25;103425.06;;;1.31;77.00
44872;BME280;30602;51.060;17.226;2023-02-10T20:22:08;103417.67;;;1.34;76.92
44872;BME280;30602;51.060;17.226;2023-02-10T20:25:23;103421.14;;;1.28;77.14
44872;BME280;30602;51.060;17.226;2023-02-10T20:28:44;103396.01;;;1.01;77.57
44872;BME280;30602;51.060;17.226;2023-02-10T20:32:02;103419.48;;;1.14;77.73
44872;BME280;30602;51.060;17.226;2023-02-10T20:35:37;103420.55;;;1.07;77.72
44872;BME280;30602;51.060;17.226;2023-02-10T20:38:51;103414.83;;;1.02;77.93